sensor_id;sensor_type;location;lat;lon;timestamp;pressure;altitude;pressure_sealevel;temperature;humidity
46722;BME280;32455;43.430;23.136;2023-04-03T00:02:03;97553.56;;;8.09;89.75
46722;BME280;32455;43.430;23.136;2023-04-03T00:04:49;97538.63;;;8.19;88.14
46722;BME280;32455;43.430;23.136;2023-04-03T00:07:34;97536.03;;;8.31;88.28
46722;BME280;32455;43.430;23.136;2023-04-03T00:10:21;97568.16;;;8.68;87.10
46722;BME280;32455;43.430;23.136;2023-04-03T00:13:07;97558.50;;;8.67;84.20
46722;BME280;32455;43.430;23.136;2023-04-03T00:15:54;97550.00;;;8.51;83.28
46722;BME280;32455;43.430;23.136;2023-04-03T00:18:39;97564.31;;;8.45;82.93
46722;BME280;32455;43.430;23.136;2023-04-03T00:21:25;97534.69;;;8.03;81.69
46722;BME280;32455;43.430;23.136;2023-04-03T00:24:11;97544.81;;;8.20;80.91
46722;BME280;32455;43.430;23.136;2023-04-03T00:26:56;97544.38;;;8.23;79.41
46722;BME280;32455;43.430;23.136;2023-04-03T00:29:42;97525.31;;;8.13;79.24
46722;BME280;32455;43.430;23.136;2023-04-03T00:32:27;97539.06;;;8.16;79.87
46722;BME280;32455;43.430;23.136;2023-04-03T00:35:13;97552.44;;;8.35;78.88
46722;BME280;32455;43.430;23.136;2023-04-03T00:38:00;97534.00;;;8.08;80.63
46722;BME280;32455;43.430;23.136;2023-04-03T00:40:48;97556.09;;;8.22;81.10
46722;BME280;32455;43.430;23.136;2023-04-03T00:43:33;97544.50;;;8.10;81.00
46722;BME280;32455;43.430;23.136;2023-04-03T00:46:18;97551.19;;;8.19;80.65
46722;BME280;32455;43.430;23.136;2023-04-03T00:49:04;97536.31;;;8.04;80.22
46722;BME280;32455;43.430;23.136;2023-04-03T00:51:50;97532.16;;;8.09;81.50
46722;BME280;32455;43.430;23.136;2023-04-03T00:54:36;97539.88;;;8.17;80.86
46722;BME280;32455;43.430;23.136;2023-04-03T00:57:22;97537.69;;;8.14;81.32
46722;BME280;32455;43.430;23.136;2023-04-03T01:00:11;97546.03;;;7.99;82.06
46722;BME280;32455;43.430;23.136;2023-04-03T01:02:57;97534.66;;;7.85;82.33
46722;BME280;32455;43.430;23.136;2023-04-03T01:05:43;97535.31;;;7.81;83.74
46722;BME280;32455;43.430;23.136;2023-04-03T01:08:28;97535.03;;;7.89;83.05
46722;BME280;32455;43.430;23.136;2023-04-03T01:11:13;97530.41;;;7.77;84.51
46722;BME280;32455;43.430;23.136;2023-04-03T01:13:59;97526.56;;;7.48;86.07
46722;BME280;32455;43.430;23.136;2023-04-03T01:16:54;97529.47;;;7.47;86.40
46722;BME280;32455;43.430;23.136;2023-04-03T01:19:43;97533.88;;;7.35;88.26
46722;BME280;32455;43.430;23.136;2023-04-03T01:25:33;97529.06;;;7.43;88.17
46722;BME280;32455;43.430;23.136;2023-04-03T01:28:25;97551.09;;;7.89;86.39
46722;BME280;32455;43.430;23.136;2023-04-03T01:34:35;97507.78;;;7.05;89.27
46722;BME280;32455;43.430;23.136;2023-04-03T01:37:21;97543.97;;;7.01;91.07
46722;BME280;32455;43.430;23.136;2023-04-03T01:40:07;97516.50;;;6.56;94.62
46722;BME280;32455;43.430;23.136;2023-04-03T01:42:53;97530.09;;;6.41;96.81
46722;BME280;32455;43.430;23.136;2023-04-03T01:45:38;97546.53;;;6.44;98.56
46722;BME280;32455;43.430;23.136;2023-04-03T01:48:23;97549.31;;;6.63;97.60
46722;BME280;32455;43.430;23.136;2023-04-03T01:51:09;97534.56;;;6.53;98.36
46722;BME280;32455;43.430;23.136;2023-04-03T01:53:55;97550.00;;;6.51;98.81
46722;BME280;32455;43.430;23.136;2023-04-03T01:56:41;97546.53;;;6.38;99.95
46722;BME280;32455;43.430;23.136;2023-04-03T01:59:26;97514.63;;;6.11;100.00
46722;BME280;32455;43.430;23.136;2023-04-03T02:02:12;97555.97;;;6.47;100.00
46722;BME280;32455;43.430;23.136;2023-04-03T02:04:59;97528.94;;;6.23;100.00
46722;BME280;32455;43.430;23.136;2023-04-03T02:07:45;97533.69;;;6.15;100.00
46722;BME280;32455;43.430;23.136;2023-04-03T02:10:30;97534.78;;;6.00;100.00
46722;BME280;32455;43.430;23.136;2023-04-03T02:13:16;97547.84;;;6.15;100.00
46722;BME280;32455;43.430;23.136;2023-04-03T02:16:10;97561.22;;;6.09;100.00
46722;BME280;32455;43.430;23.136;2023-04-03T02:18:56;97562.81;;;6.30;100.00
46722;BME280;32455;43.430;23.136;2023-04-03T02:21:41;97542.31;;;6.68;100.00
46722;BME280;32455;43.430;23.136;2023-04-03T02:24:26;97551.50;;;7.42;93.91
46722;BME280;32455;43.430;23.136;2023-04-03T02:27:12;97546.59;;;7.83;89.47
46722;BME280;32455;43.430;23.136;2023-04-03T02:29:57;97539.41;;;7.83;86.71
46722;BME280;32455;43.430;23.136;2023-04-03T02:32:43;97554.09;;;7.74;86.73
46722;BME280;32455;43.430;23.136;2023-04-03T02:35:29;97545.34;;;7.67;87.28
46722;BME280;32455;43.430;23.136;2023-04-03T02:38:14;97533.56;;;7.49;88.41
46722;BME280;32455;43.430;23.136;2023-04-03T02:41:02;97541.28;;;7.58;87.92
46722;BME280;32455;43.430;23.136;2023-04-03T02:43:48;97512.81;;;7.45;88.01
46722;BME280;32455;43.430;23.136;2023-04-03T02:46:33;97531.63;;;7.57;87.38
46722;BME280;32455;43.430;23.136;2023-04-03T02:49:19;97528.56;;;7.53;88.25
46722;BME280;32455;43.430;23.136;2023-04-03T02:52:04;97536.38;;;7.55;88.80
46722;BME280;32455;43.430;23.136;2023-04-03T02:54:50;97526.50;;;7.55;88.18
46722;BME280;32455;43.430;23.136;2023-04-03T02:57:35;97502.72;;;7.47;88.56
46722;BME280;32455;43.430;23.136;2023-04-03T03:00:21;97501.94;;;7.40;89.33
46722;BME280;32455;43.430;23.136;2023-04-03T03:03:06;97495.19;;;7.12;90.67
46722;BME280;32455;43.430;23.136;2023-04-03T03:06:04;97501.00;;;6.71;94.00
46722;BME280;32455;43.430;23.136;2023-04-03T03:08:49;97522.34;;;6.33;98.13
46722;BME280;32455;43.430;23.136;2023-04-03T03:11:35;97483.66;;;6.10;99.62
46722;BME280;32455;43.430;23.136;2023-04-03T03:14:20;97519.38;;;6.02;100.00
46722;BME280;32455;43.430;23.136;2023-04-03T03:17:05;97506.09;;;6.41;98.83
46722;BME280;32455;43.430;23.136;2023-04-03T03:19:50;97499.59;;;6.30;99.99
46722;BME280;32455;43.430;23.136;2023-04-03T03:22:36;97499.66;;;6.03;100.00
46722;BME280;32455;43.430;23.136;2023-04-03T03:25:21;97507.88;;;6.09;100.00
46722;BME280;32455;43.430;23.136;2023-04-03T03:28:07;97522.66;;;5.85;100.00
46722;BME280;32455;43.430;23.136;2023-04-03T03:30:55;97504.03;;;5.71;100.00
46722;BME280;32455;43.430;23.136;2023-04-03T03:33:40;97497.06;;;5.70;100.00
46722;BME280;32455;43.430;23.136;2023-04-03T03:36:26;97496.41;;;5.82;100.00
46722;BME280;32455;43.430;23.136;2023-04-03T03:39:12;97482.94;;;5.57;100.00
46722;BME280;32455;43.430;23.136;2023-04-03T03:41:57;97486.38;;;5.77;100.00
46722;BME280;32455;43.430;23.136;2023-04-03T03:44:42;97464.41;;;5.95;100.00
46722;BME280;32455;43.430;23.136;2023-04-03T03:47:27;97497.38;;;6.14;100.00
46722;BME280;32455;43.430;23.136;2023-04-03T03:50:13;97489.22;;;6.02;100.00
46722;BME280;32455;43.430;23.136;2023-04-03T03:52:58;97485.56;;;5.96;100.00
46722;BME280;32455;43.430;23.136;2023-04-03T03:55:44;97494.38;;;5.97;100.00
46722;BME280;32455;43.430;23.136;2023-04-03T03:58:29;97473.63;;;5.86;100.00
46722;BME280;32455;43.430;23.136;2023-04-03T04:01:15;97514.91;;;6.48;100.00
46722;BME280;32455;43.430;23.136;2023-04-03T04:04:01;97502.78;;;6.45;100.00
46722;BME280;32455;43.430;23.136;2023-04-03T04:06:46;97501.72;;;6.91;97.53
46722;BME280;32455;43.430;23.136;2023-04-03T04:09:32;97513.84;;;7.19;94.66
46722;BME280;32455;43.430;23.136;2023-04-03T04:12:17;97488.94;;;7.25;93.49
46722;BME280;32455;43.430;23.136;2023-04-03T04:15:03;97488.09;;;6.99;94.26
46722;BME280;32455;43.430;23.136;2023-04-03T04:17:49;97505.06;;;7.12;93.25
46722;BME280;32455;43.430;23.136;2023-04-03T04:20:34;97508.03;;;7.28;92.16
46722;BME280;32455;43.430;23.136;2023-04-03T04:23:20;97483.69;;;7.12;92.11
46722;BME280;32455;43.430;23.136;2023-04-03T04:26:05;97505.06;;;7.12;92.75
46722;BME280;32455;43.430;23.136;2023-04-03T04:28:50;97505.34;;;7.28;90.96
46722;BME280;32455;43.430;23.136;2023-04-03T04:31:36;97500.91;;;7.41;90.08
46722;BME280;32455;43.430;23.136;2023-04-03T04:34:21;97517.75;;;7.66;89.14
46722;BME280;32455;43.430;23.136;2023-04-03T04:37:06;97519.41;;;7.67;88.40
46722;BME280;32455;43.430;23.136;2023-04-03T04:39:51;97531.66;;;7.75;88.46
46722;BME280;32455;43.430;23.136;2023-04-03T04:42:37;97537.72;;;8.07;86.23
46722;BME280;32455;43.430;23.136;2023-04-03T04:45:22;97543.41;;;8.36;84.76
46722;BME280;32455;43.430;23.136;2023-04-03T04:48:07;97562.06;;;8.61;83.49
46722;BME280;32455;43.430;23.136;2023-04-03T04:50:53;97543.84;;;8.69;83.63
46722;BME280;32455;43.430;23.136;2023-04-03T04:53:38;97547.84;;;8.78;82.83
46722;BME280;32455;43.430;23.136;2023-04-03T04:56:24;97558.50;;;8.97;80.80
46722;BME280;32455;43.430;23.136;2023-04-03T04:59:10;97552.72;;;8.82;80.40
46722;BME280;32455;43.430;23.136;2023-04-03T05:01:55;97560.13;;;8.98;79.79
46722;BME280;32455;43.430;23.136;2023-04-03T05:04:40;97565.31;;;9.11;78.31
46722;BME280;32455;43.430;23.136;2023-04-03T05:07:26;97570.91;;;9.10;78.15
46722;BME280;32455;43.430;23.136;2023-04-03T05:10:11;97558.72;;;9.25;75.67
46722;BME280;32455;43.430;23.136;2023-04-03T05:12:57;97592.09;;;9.41;77.12
46722;BME280;32455;43.430;23.136;2023-04-03T05:15:43;97577.25;;;9.27;76.46
46722;BME280;32455;43.430;23.136;2023-04-03T05:18:28;97579.84;;;9.45;76.86
46722;BME280;32455;43.430;23.136;2023-04-03T05:21:13;97574.41;;;9.52;75.70
46722;BME280;32455;43.430;23.136;2023-04-03T05:24:00;97587.38;;;9.78;75.66
46722;BME280;32455;43.430;23.136;2023-04-03T05:26:47;97584.81;;;9.95;76.01
46722;BME280;32455;43.430;23.136;2023-04-03T05:29:33;97577.59;;;10.19;74.58
46722;BME280;32455;43.430;23.136;2023-04-03T05:32:18;97585.09;;;10.29;74.00
46722;BME280;32455;43.430;23.136;2023-04-03T05:35:04;97594.25;;;10.57;74.22
46722;BME280;32455;43.430;23.136;2023-04-03T05:37:50;97587.00;;;10.57;73.23
46722;BME280;32455;43.430;23.136;2023-04-03T05:40:35;97605.81;;;10.69;73.45
46722;BME280;32455;43.430;23.136;2023-04-03T05:43:20;97601.59;;;10.73;74.30
46722;BME280;32455;43.430;23.136;2023-04-03T05:46:10;97589.56;;;10.75;74.34
46722;BME280;32455;43.430;23.136;2023-04-03T05:48:56;97582.59;;;10.91;71.29
46722;BME280;32455;43.430;23.136;2023-04-03T05:51:41;97589.63;;;10.92;72.38
46722;BME280;32455;43.430;23.136;2023-04-03T05:54:29;97615.13;;;11.18;70.46
46722;BME280;32455;43.430;23.136;2023-04-03T05:57:15;97611.28;;;11.14;70.90
46722;BME280;32455;43.430;23.136;2023-04-03T06:00:01;97618.47;;;11.25;69.65
46722;BME280;32455;43.430;23.136;2023-04-03T06:02:46;97618.34;;;11.32;70.92
46722;BME280;32455;43.430;23.136;2023-04-03T06:05:32;97636.97;;;11.50;71.66
46722;BME280;32455;43.430;23.136;2023-04-03T06:08:18;97617.47;;;11.60;72.71
46722;BME280;32455;43.430;23.136;2023-04-03T06:11:04;97623.44;;;11.91;71.20
46722;BME280;32455;43.430;23.136;2023-04-03T06:13:49;97617.53;;;11.94;69.57
46722;BME280;32455;43.430;23.136;2023-04-03T06:16:35;97611.41;;;11.98;70.43
46722;BME280;32455;43.430;23.136;2023-04-03T06:19:20;97618.06;;;12.08;68.66
46722;BME280;32455;43.430;23.136;2023-04-03T06:22:05;97603.16;;;12.22;69.29
46722;BME280;32455;43.430;23.136;2023-04-03T06:24:51;97602.78;;;12.13;68.23
46722;BME280;32455;43.430;23.136;2023-04-03T06:27:36;97605.94;;;12.27;68.62
46722;BME280;32455;43.430;23.136;2023-04-03T06:30:22;97605.03;;;12.38;66.83
46722;BME280;32455;43.430;23.136;2023-04-03T06:33:07;97617.66;;;12.76;66.83
46722;BME280;32455;43.430;23.136;2023-04-03T06:36:05;97620.47;;;12.65;68.53
46722;BME280;32455;43.430;23.136;2023-04-03T06:38:50;97601.72;;;12.53;67.18
46722;BME280;32455;43.430;23.136;2023-04-03T06:41:35;97621.59;;;12.47;66.30
46722;BME280;32455;43.430;23.136;2023-04-03T06:44:20;97617.00;;;12.47;66.66
46722;BME280;32455;43.430;23.136;2023-04-03T06:47:06;97622.22;;;12.76;67.24
46722;BME280;32455;43.430;23.136;2023-04-03T06:49:51;97615.09;;;12.65;64.56
46722;BME280;32455;43.430;23.136;2023-04-03T06:52:37;97612.88;;;13.06;66.40
46722;BME280;32455;43.430;23.136;2023-04-03T06:55:24;97594.00;;;13.06;63.81
46722;BME280;32455;43.430;23.136;2023-04-03T06:58:10;97608.69;;;13.37;64.06
46722;BME280;32455;43.430;23.136;2023-04-03T07:00:55;97598.09;;;13.08;64.53
46722;BME280;32455;43.430;23.136;2023-04-03T07:03:40;97608.16;;;13.40;63.50
46722;BME280;32455;43.430;23.136;2023-04-03T07:06:26;97625.88;;;13.31;63.69
46722;BME280;32455;43.430;23.136;2023-04-03T07:09:13;97618.81;;;13.51;62.55
46722;BME280;32455;43.430;23.136;2023-04-03T07:11:59;97618.34;;;13.60;62.14
46722;BME280;32455;43.430;23.136;2023-04-03T07:14:45;97613.63;;;13.45;63.86
46722;BME280;32455;43.430;23.136;2023-04-03T07:17:31;97619.38;;;13.53;62.52
46722;BME280;32455;43.430;23.136;2023-04-03T07:20:16;97614.84;;;13.32;63.20
46722;BME280;32455;43.430;23.136;2023-04-03T07:23:02;97621.00;;;13.27;63.10
46722;BME280;32455;43.430;23.136;2023-04-03T07:25:49;97617.63;;;13.69;62.47
46722;BME280;32455;43.430;23.136;2023-04-03T07:28:34;97609.50;;;13.15;63.97
46722;BME280;32455;43.430;23.136;2023-04-03T07:31:21;97610.28;;;13.92;61.57
46722;BME280;32455;43.430;23.136;2023-04-03T07:34:08;97616.91;;;13.79;61.46
46722;BME280;32455;43.430;23.136;2023-04-03T07:36:54;97612.91;;;13.87;62.99
46722;BME280;32455;43.430;23.136;2023-04-03T07:39:43;97607.66;;;14.02;62.31
46722;BME280;32455;43.430;23.136;2023-04-03T07:42:29;97623.13;;;13.80;61.52
46722;BME280;32455;43.430;23.136;2023-04-03T07:45:14;97600.94;;;13.77;62.79
46722;BME280;32455;43.430;23.136;2023-04-03T07:48:00;97618.34;;;13.60;64.10
46722;BME280;32455;43.430;23.136;2023-04-03T07:50:47;97612.81;;;14.09;61.71
46722;BME280;32455;43.430;23.136;2023-04-03T07:53:33;97613.69;;;14.14;61.18
46722;BME280;32455;43.430;23.136;2023-04-03T07:56:19;97597.91;;;13.69;61.96
46722;BME280;32455;43.430;23.136;2023-04-03T07:59:05;97603.66;;;14.10;62.19
46722;BME280;32455;43.430;23.136;2023-04-03T08:01:51;97596.28;;;14.00;62.07
46722;BME280;32455;43.430;23.136;2023-04-03T08:04:36;97584.44;;;13.74;63.43
46722;BME280;32455;43.430;23.136;2023-04-03T08:07:21;97584.41;;;14.01;59.83
46722;BME280;32455;43.430;23.136;2023-04-03T08:10:07;97592.84;;;13.77;63.38
46722;BME280;32455;43.430;23.136;2023-04-03T08:12:52;97589.16;;;14.26;63.04
46722;BME280;32455;43.430;23.136;2023-04-03T08:15:37;97580.63;;;14.02;62.83
46722;BME280;32455;43.430;23.136;2023-04-03T08:18:23;97585.13;;;14.28;61.10
46722;BME280;32455;43.430;23.136;2023-04-03T08:21:11;97586.75;;;14.77;60.68
46722;BME280;32455;43.430;23.136;2023-04-03T08:23:56;97591.06;;;14.73;60.03
46722;BME280;32455;43.430;23.136;2023-04-03T08:26:42;97594.66;;;13.99;61.83
46722;BME280;32455;43.430;23.136;2023-04-03T08:29:27;97597.72;;;14.13;61.46
46722;BME280;32455;43.430;23.136;2023-04-03T08:32:14;97582.03;;;14.10;60.72
46722;BME280;32455;43.430;23.136;2023-04-03T08:34:59;97595.06;;;14.60;60.87
46722;BME280;32455;43.430;23.136;2023-04-03T08:37:45;97573.38;;;14.50;61.89
46722;BME280;32455;43.430;23.136;2023-04-03T08:40:31;97583.72;;;14.58;59.61
46722;BME280;32455;43.430;23.136;2023-04-03T08:43:36;97571.91;;;14.85;59.56
46722;BME280;32455;43.430;23.136;2023-04-03T08:47:02;97569.78;;;14.87;59.17
46722;BME280;32455;43.430;23.136;2023-04-03T08:49:57;97538.31;;;14.65;59.00
46722;BME280;32455;43.430;23.136;2023-04-03T08:52:47;97548.88;;;14.67;61.25
46722;BME280;32455;43.430;23.136;2023-04-03T08:55:40;97571.31;;;14.67;61.41
46722;BME280;32455;43.430;23.136;2023-04-03T08:58:29;97571.38;;;14.77;59.89
46722;BME280;32455;43.430;23.136;2023-04-03T09:01:25;97567.31;;;14.80;59.34
46722;BME280;32455;43.430;23.136;2023-04-03T09:04:13;97559.88;;;14.50;60.03
46722;BME280;32455;43.430;23.136;2023-04-03T09:07:08;97573.09;;;15.04;59.31
46722;BME280;32455;43.430;23.136;2023-04-03T09:09:54;97533.53;;;14.98;59.04
46722;BME280;32455;43.430;23.136;2023-04-03T09:12:44;97565.00;;;15.24;58.35
46722;BME280;32455;43.430;23.136;2023-04-03T09:15:31;97557.00;;;14.77;59.80
46722;BME280;32455;43.430;23.136;2023-04-03T09:18:21;97568.16;;;14.91;60.41
46722;BME280;32455;43.430;23.136;2023-04-03T09:21:20;97575.34;;;15.53;58.69
46722;BME280;32455;43.430;23.136;2023-04-03T09:24:10;97580.47;;;15.34;59.03
46722;BME280;32455;43.430;23.136;2023-04-03T09:27:07;97583.47;;;15.53;55.50
46722;BME280;32455;43.430;23.136;2023-04-03T09:29:57;97563.13;;;15.30;57.23
46722;BME280;32455;43.430;23.136;2023-04-03T09:32:50;97552.06;;;15.47;55.03
46722;BME280;32455;43.430;23.136;2023-04-03T09:35:37;97546.03;;;15.14;55.30
46722;BME280;32455;43.430;23.136;2023-04-03T09:38:26;97560.59;;;14.98;56.94
46722;BME280;32455;43.430;23.136;2023-04-03T09:41:22;97543.03;;;15.00;55.15
46722;BME280;32455;43.430;23.136;2023-04-03T09:44:21;97556.63;;;15.36;56.23
46722;BME280;32455;43.430;23.136;2023-04-03T09:47:34;97570.19;;;15.51;57.32
46722;BME280;32455;43.430;23.136;2023-04-03T09:50:22;97561.53;;;15.49;57.22
46722;BME280;32455;43.430;23.136;2023-04-03T09:53:41;97564.47;;;15.17;60.65
46722;BME280;32455;43.430;23.136;2023-04-03T09:56:29;97538.91;;;14.77;60.10
46722;BME280;32455;43.430;23.136;2023-04-03T09:59:16;97557.44;;;15.32;59.75
46722;BME280;32455;43.430;23.136;2023-04-03T10:02:51;97562.66;;;15.74;57.40
46722;BME280;32455;43.430;23.136;2023-04-03T10:05:37;97551.78;;;15.53;57.73
46722;BME280;32455;43.430;23.136;2023-04-03T10:08:28;97558.81;;;15.34;60.37
46722;BME280;32455;43.430;23.136;2023-04-03T10:11:16;97549.59;;;15.25;57.32
46722;BME280;32455;43.430;23.136;2023-04-03T10:14:03;97549.34;;;15.52;57.50
46722;BME280;32455;43.430;23.136;2023-04-03T10:19:47;97516.72;;;14.75;61.95
46722;BME280;32455;43.430;23.136;2023-04-03T10:28:31;97508.72;;;15.32;59.00
46722;BME280;32455;43.430;23.136;2023-04-03T10:31:45;97538.19;;;15.08;57.66
46722;BME280;32455;43.430;23.136;2023-04-03T10:34:43;97518.75;;;15.46;56.66
46722;BME280;32455;43.430;23.136;2023-04-03T10:38:01;97524.47;;;15.65;57.85
46722;BME280;32455;43.430;23.136;2023-04-03T10:40:57;97522.84;;;15.85;55.87
46722;BME280;32455;43.430;23.136;2023-04-03T10:59:33;97498.72;;;15.83;51.96
46722;BME280;32455;43.430;23.136;2023-04-03T11:02:27;97494.66;;;15.75;53.14
46722;BME280;32455;43.430;23.136;2023-04-03T11:05:18;97495.72;;;15.54;52.83
46722;BME280;32455;43.430;23.136;2023-04-03T11:08:33;97465.41;;;15.62;52.78
46722;BME280;32455;43.430;23.136;2023-04-03T11:11:38;97495.97;;;16.03;52.92
46722;BME280;32455;43.430;23.136;2023-04-03T11:14:35;97490.59;;;15.98;53.99
46722;BME280;32455;43.430;23.136;2023-04-03T11:17:41;97480.03;;;15.82;52.55
46722;BME280;32455;43.430;23.136;2023-04-03T11:20:31;97482.19;;;15.80;55.44
46722;BME280;32455;43.430;23.136;2023-04-03T11:23:26;97488.69;;;15.94;57.14
46722;BME280;32455;43.430;23.136;2023-04-03T11:26:17;97467.03;;;15.89;55.20
46722;BME280;32455;43.430;23.136;2023-04-03T11:29:07;97459.97;;;15.62;57.62
46722;BME280;32455;43.430;23.136;2023-04-03T11:32:32;97436.16;;;15.54;56.08
46722;BME280;32455;43.430;23.136;2023-04-03T11:35:24;97444.31;;;15.64;56.25
46722;BME280;32455;43.430;23.136;2023-04-03T11:38:19;97439.97;;;15.63;55.49
46722;BME280;32455;43.430;23.136;2023-04-03T11:41:08;97461.59;;;15.84;56.14
46722;BME280;32455;43.430;23.136;2023-04-03T11:44:04;97462.97;;;15.61;55.14
46722;BME280;32455;43.430;23.136;2023-04-03T11:46:55;97446.47;;;15.72;54.83
46722;BME280;32455;43.430;23.136;2023-04-03T11:50:05;97434.53;;;15.53;56.74
46722;BME280;32455;43.430;23.136;2023-04-03T11:55:58;97419.94;;;15.59;56.26
46722;BME280;32455;43.430;23.136;2023-04-03T12:01:57;97424.00;;;15.72;55.40
46722;BME280;32455;43.430;23.136;2023-04-03T12:05:25;97436.16;;;15.44;58.16
46722;BME280;32455;43.430;23.136;2023-04-03T12:11:44;97423.97;;;15.77;56.45
46722;BME280;32455;43.430;23.136;2023-04-03T12:14:32;97433.16;;;15.86;57.64
46722;BME280;32455;43.430;23.136;2023-04-03T12:17:25;97427.97;;;16.00;57.38
46722;BME280;32455;43.430;23.136;2023-04-03T12:20:51;97424.47;;;15.99;59.44
46722;BME280;32455;43.430;23.136;2023-04-03T12:27:43;97426.13;;;15.90;57.45
46722;BME280;32455;43.430;23.136;2023-04-03T12:30:22;97421.00;;;15.63;57.64
46722;BME280;32455;43.430;23.136;2023-04-03T12:33:29;97421.28;;;15.72;58.00
46722;BME280;32455;43.430;23.136;2023-04-03T12:36:33;97415.59;;;15.68;54.68
46722;BME280;32455;43.430;23.136;2023-04-03T12:42:51;97399.88;;;15.65;57.24
46722;BME280;32455;43.430;23.136;2023-04-03T12:49:00;97392.28;;;15.62;58.74
46722;BME280;32455;43.430;23.136;2023-04-03T12:51:51;97373.59;;;15.61;57.14
46722;BME280;32455;43.430;23.136;2023-04-03T12:54:38;97361.69;;;15.62;57.45
46722;BME280;32455;43.430;23.136;2023-04-03T12:57:29;97385.81;;;15.68;55.38
46722;BME280;32455;43.430;23.136;2023-04-03T13:00:32;97389.88;;;15.66;54.48
46722;BME280;32455;43.430;23.136;2023-04-03T13:03:27;97383.34;;;15.62;56.03
46722;BME280;32455;43.430;23.136;2023-04-03T13:06:24;97386.91;;;15.42;57.46
46722;BME280;32455;43.430;23.136;2023-04-03T13:09:28;97381.75;;;15.40;58.88
46722;BME280;32455;43.430;23.136;2023-04-03T13:12:19;97371.72;;;15.41;59.26
46722;BME280;32455;43.430;23.136;2023-04-03T13:18:20;97369.59;;;15.27;60.93
46722;BME280;32455;43.430;23.136;2023-04-03T13:21:22;97365.84;;;15.08;61.74
46722;BME280;32455;43.430;23.136;2023-04-03T13:24:10;97358.78;;;15.22;62.98
46722;BME280;32455;43.430;23.136;2023-04-03T13:26:57;97356.06;;;15.38;61.29
46722;BME280;32455;43.430;23.136;2023-04-03T13:29:42;97352.00;;;15.15;61.98
46722;BME280;32455;43.430;23.136;2023-04-03T13:32:31;97333.84;;;15.36;60.99
46722;BME280;32455;43.430;23.136;2023-04-03T13:35:54;97347.34;;;15.56;60.95
46722;BME280;32455;43.430;23.136;2023-04-03T13:38:42;97325.78;;;15.20;61.04
46722;BME280;32455;43.430;23.136;2023-04-03T13:41:33;97331.94;;;15.46;59.70
46722;BME280;32455;43.430;23.136;2023-04-03T13:44:32;97330.03;;;15.47;58.73
46722;BME280;32455;43.430;23.136;2023-04-03T13:47:23;97311.16;;;15.06;60.73
46722;BME280;32455;43.430;23.136;2023-04-03T13:50:28;97307.63;;;15.11;60.57
46722;BME280;32455;43.430;23.136;2023-04-03T13:53:15;97293.59;;;14.88;59.84
46722;BME280;32455;43.430;23.136;2023-04-03T14:04:56;97299.56;;;14.90;61.40
46722;BME280;32455;43.430;23.136;2023-04-03T14:07:45;97305.78;;;14.81;62.29
46722;BME280;32455;43.430;23.136;2023-04-03T14:10:31;97307.13;;;14.52;63.64
46722;BME280;32455;43.430;23.136;2023-04-03T14:13:18;97300.84;;;14.32;65.86
46722;BME280;32455;43.430;23.136;2023-04-03T14:16:05;97295.44;;;14.42;64.26
46722;BME280;32455;43.430;23.136;2023-04-03T14:18:51;97327.66;;;14.59;63.82
46722;BME280;32455;43.430;23.136;2023-04-03T14:21:38;97335.25;;;14.67;63.71
46722;BME280;32455;43.430;23.136;2023-04-03T14:24:23;97310.00;;;14.25;65.94
46722;BME280;32455;43.430;23.136;2023-04-03T14:27:16;97330.66;;;14.72;65.85
46722;BME280;32455;43.430;23.136;2023-04-03T14:30:06;97335.50;;;14.55;67.32
46722;BME280;32455;43.430;23.136;2023-04-03T14:32:51;97326.34;;;14.56;66.40
46722;BME280;32455;43.430;23.136;2023-04-03T14:35:37;97334.66;;;14.44;67.76
46722;BME280;32455;43.430;23.136;2023-04-03T14:38:28;97338.41;;;14.28;69.16
46722;BME280;32455;43.430;23.136;2023-04-03T14:41:18;97339.22;;;14.28;67.29
46722;BME280;32455;43.430;23.136;2023-04-03T14:44:03;97318.09;;;14.10;66.77
46722;BME280;32455;43.430;23.136;2023-04-03T14:46:49;97329.44;;;14.12;66.77
46722;BME280;32455;43.430;23.136;2023-04-03T14:49:34;97327.25;;;13.99;67.62
46722;BME280;32455;43.430;23.136;2023-04-03T14:52:25;97322.34;;;13.91;68.60
46722;BME280;32455;43.430;23.136;2023-04-03T14:55:14;97332.06;;;13.87;69.68
46722;BME280;32455;43.430;23.136;2023-04-03T14:58:00;97319.34;;;13.87;69.68
46722;BME280;32455;43.430;23.136;2023-04-03T15:00:46;97335.31;;;13.89;68.82
46722;BME280;32455;43.430;23.136;2023-04-03T15:03:31;97314.19;;;13.70;69.62
46722;BME280;32455;43.430;23.136;2023-04-03T15:06:16;97303.31;;;13.60;70.12
46722;BME280;32455;43.430;23.136;2023-04-03T15:09:02;97314.44;;;13.69;72.04
46722;BME280;32455;43.430;23.136;2023-04-03T15:11:49;97324.31;;;13.48;73.28
46722;BME280;32455;43.430;23.136;2023-04-03T15:14:36;97314.91;;;13.50;74.48
46722;BME280;32455;43.430;23.136;2023-04-03T15:17:22;97312.41;;;13.44;75.80
46722;BME280;32455;43.430;23.136;2023-04-03T15:20:17;97307.50;;;13.36;75.88
46722;BME280;32455;43.430;23.136;2023-04-03T15:23:03;97299.81;;;13.12;76.88
46722;BME280;32455;43.430;23.136;2023-04-03T15:25:49;97313.94;;;13.24;78.30
46722;BME280;32455;43.430;23.136;2023-04-03T15:28:44;97302.72;;;13.06;80.07
46722;BME280;32455;43.430;23.136;2023-04-03T15:31:30;97295.47;;;13.06;80.06
46722;BME280;32455;43.430;23.136;2023-04-03T15:34:16;97298.66;;;12.98;81.93
46722;BME280;32455;43.430;23.136;2023-04-03T15:37:01;97320.06;;;13.15;83.01
46722;BME280;32455;43.430;23.136;2023-04-03T15:39:47;97313.16;;;12.92;84.87
46722;BME280;32455;43.430;23.136;2023-04-03T15:42:32;97297.06;;;12.70;85.37
46722;BME280;32455;43.430;23.136;2023-04-03T15:45:18;97306.75;;;12.66;87.10
46722;BME280;32455;43.430;23.136;2023-04-03T15:48:04;97319.22;;;12.72;87.89
46722;BME280;32455;43.430;23.136;2023-04-03T15:50:51;97308.56;;;12.55;89.83